sensor_id;sensor_type;location;lat;lon;timestamp;pressure;altitude;pressure_sealevel;temperature;humidity
13974;BME280;7060;43.770;4.008;2023-04-01T00:01:17;100939.00;;;12.76;43.91
13974;BME280;7060;43.770;4.008;2023-04-01T00:03:45;100928.66;;;12.81;43.27
13974;BME280;7060;43.770;4.008;2023-04-01T00:06:15;100924.28;;;12.80;42.83
13974;BME280;7060;43.770;4.008;2023-04-01T00:08:44;100928.13;;;12.78;42.84
13974;BME280;7060;43.770;4.008;2023-04-01T00:11:13;100923.53;;;12.70;42.92
13974;BME280;7060;43.770;4.008;2023-04-01T00:13:44;100947.38;;;12.73;42.95
13974;BME280;7060;43.770;4.008;2023-04-01T00:16:12;100945.75;;;12.80;42.55
13974;BME280;7060;43.770;4.008;2023-04-01T00:18:48;100923.03;;;12.67;42.98
13974;BME280;7060;43.770;4.008;2023-04-01T00:21:17;100943.75;;;12.82;42.65
13974;BME280;7060;43.770;4.008;2023-04-01T00:23:46;100944.06;;;12.79;43.11
13974;BME280;7060;43.770;4.008;2023-04-01T00:26:14;100948.28;;;12.82;43.06
13974;BME280;7060;43.770;4.008;2023-04-01T00:28:47;100950.13;;;12.81;43.33
13974;BME280;7060;43.770;4.008;2023-04-01T00:31:16;100951.88;;;12.73;43.12
13974;BME280;7060;43.770;4.008;2023-04-01T00:33:44;100959.56;;;12.85;43.27
13974;BME280;7060;43.770;4.008;2023-04-01T00:36:15;100961.56;;;12.83;43.56
13974;BME280;7060;43.770;4.008;2023-04-01T00:38:44;100948.59;;;12.79;43.53
13974;BME280;7060;43.770;4.008;2023-04-01T00:41:14;100951.28;;;12.79;43.74
13974;BME280;7060;43.770;4.008;2023-04-01T00:43:47;100951.13;;;12.80;43.91
13974;BME280;7060;43.770;4.008;2023-04-01T00:46:16;100944.59;;;12.83;43.67
13974;BME280;7060;43.770;4.008;2023-04-01T00:48:48;100945.75;;;12.80;43.91
13974;BME280;7060;43.770;4.008;2023-04-01T00:51:19;100955.09;;;12.76;43.82
13974;BME280;7060;43.770;4.008;2023-04-01T00:53:50;100904.78;;;12.52;43.51
13974;BME280;7060;43.770;4.008;2023-04-01T00:56:22;100957.63;;;12.78;43.91
13974;BME280;7060;43.770;4.008;2023-04-01T00:58:58;100949.91;;;12.75;43.62
13974;BME280;7060;43.770;4.008;2023-04-01T01:01:29;100949.06;;;12.74;43.95
13974;BME280;7060;43.770;4.008;2023-04-01T01:03:59;100946.81;;;12.70;43.74
13974;BME280;7060;43.770;4.008;2023-04-01T01:06:38;100952.72;;;12.73;43.74
13974;BME280;7060;43.770;4.008;2023-04-01T01:09:27;100954.72;;;12.71;43.72
13974;BME280;7060;43.770;4.008;2023-04-01T01:12:04;100955.03;;;12.68;44.48
13974;BME280;7060;43.770;4.008;2023-04-01T01:14:48;100955.81;;;12.61;44.39
13974;BME280;7060;43.770;4.008;2023-04-01T01:17:26;100956.56;;;12.53;44.86
13974;BME280;7060;43.770;4.008;2023-04-01T01:20:25;100953.91;;;12.53;44.42
13974;BME280;7060;43.770;4.008;2023-04-01T01:26:14;100941.09;;;12.47;44.74
13974;BME280;7060;43.770;4.008;2023-04-01T01:29:02;100934.28;;;12.35;45.17
13974;BME280;7060;43.770;4.008;2023-04-01T01:31:37;100936.03;;;12.44;45.29
13974;BME280;7060;43.770;4.008;2023-04-01T01:34:15;100937.03;;;12.43;45.38
13974;BME280;7060;43.770;4.008;2023-04-01T01:36:54;100930.47;;;12.37;44.86
13974;BME280;7060;43.770;4.008;2023-04-01T01:39:26;100932.16;;;12.38;45.06
13974;BME280;7060;43.770;4.008;2023-04-01T01:41:57;100916.22;;;12.37;45.43
13974;BME280;7060;43.770;4.008;2023-04-01T01:44:30;100922.56;;;12.36;45.15
13974;BME280;7060;43.770;4.008;2023-04-01T01:47:02;100929.31;;;12.40;44.86
13974;BME280;7060;43.770;4.008;2023-04-01T01:49:32;100925.47;;;12.42;44.73
13974;BME280;7060;43.770;4.008;2023-04-01T01:52:03;100922.63;;;12.44;45.32
13974;BME280;7060;43.770;4.008;2023-04-01T01:54:31;100924.75;;;12.40;45.14
13974;BME280;7060;43.770;4.008;2023-04-01T01:57:04;100920.44;;;12.39;45.57
13974;BME280;7060;43.770;4.008;2023-04-01T01:59:38;100899.66;;;12.24;45.71
13974;BME280;7060;43.770;4.008;2023-04-01T02:02:10;100915.97;;;12.30;45.88
13974;BME280;7060;43.770;4.008;2023-04-01T02:04:43;100915.44;;;12.27;46.07
13974;BME280;7060;43.770;4.008;2023-04-01T02:07:18;100910.91;;;12.27;46.15
13974;BME280;7060;43.770;4.008;2023-04-01T02:09:48;100907.38;;;12.27;46.14
13974;BME280;7060;43.770;4.008;2023-04-01T02:12:19;100903.31;;;12.23;46.19
13974;BME280;7060;43.770;4.008;2023-04-01T02:14:52;100910.53;;;12.22;46.84
13974;BME280;7060;43.770;4.008;2023-04-01T02:17:24;100900.50;;;12.14;46.75
13974;BME280;7060;43.770;4.008;2023-04-01T02:19:57;100904.75;;;12.17;46.39
13974;BME280;7060;43.770;4.008;2023-04-01T02:22:30;100914.34;;;12.19;46.52
13974;BME280;7060;43.770;4.008;2023-04-01T02:25:02;100918.84;;;12.19;46.46
13974;BME280;7060;43.770;4.008;2023-04-01T02:27:33;100913.41;;;12.11;46.86
13974;BME280;7060;43.770;4.008;2023-04-01T02:30:03;100908.03;;;12.11;46.86
13974;BME280;7060;43.770;4.008;2023-04-01T02:32:33;100923.13;;;12.12;46.60
13974;BME280;7060;43.770;4.008;2023-04-01T02:35:03;100905.13;;;12.04;46.23
13974;BME280;7060;43.770;4.008;2023-04-01T02:37:34;100923.28;;;12.10;46.25
13974;BME280;7060;43.770;4.008;2023-04-01T02:40:07;100903.34;;;11.95;46.42
13974;BME280;7060;43.770;4.008;2023-04-01T02:42:36;100914.44;;;12.00;46.58
13974;BME280;7060;43.770;4.008;2023-04-01T02:45:06;100934.16;;;12.09;46.48
13974;BME280;7060;43.770;4.008;2023-04-01T02:47:35;100925.81;;;12.12;46.50
13974;BME280;7060;43.770;4.008;2023-04-01T02:50:05;100938.38;;;12.11;46.99
13974;BME280;7060;43.770;4.008;2023-04-01T02:52:35;100944.03;;;12.08;46.97
13974;BME280;7060;43.770;4.008;2023-04-01T02:55:06;100948.84;;;12.05;46.82
13974;BME280;7060;43.770;4.008;2023-04-01T02:57:34;100928.28;;;11.96;46.82
13974;BME280;7060;43.770;4.008;2023-04-01T03:00:03;100952.38;;;12.05;47.04
13974;BME280;7060;43.770;4.008;2023-04-01T03:02:38;100957.44;;;12.08;47.08
13974;BME280;7060;43.770;4.008;2023-04-01T03:05:07;100957.78;;;12.13;47.43
13974;BME280;7060;43.770;4.008;2023-04-01T03:07:37;100964.19;;;12.12;47.52
13974;BME280;7060;43.770;4.008;2023-04-01T03:10:07;100954.59;;;12.10;47.57
13974;BME280;7060;43.770;4.008;2023-04-01T03:12:35;100972.97;;;12.05;47.74
13974;BME280;7060;43.770;4.008;2023-04-01T03:15:05;100964.38;;;12.01;47.92
13974;BME280;7060;43.770;4.008;2023-04-01T03:17:38;100975.38;;;11.98;48.60
13974;BME280;7060;43.770;4.008;2023-04-01T03:20:08;100960.59;;;11.94;48.85
13974;BME280;7060;43.770;4.008;2023-04-01T03:22:39;100956.66;;;11.88;49.14
13974;BME280;7060;43.770;4.008;2023-04-01T03:25:09;100954.84;;;11.89;49.40
13974;BME280;7060;43.770;4.008;2023-04-01T03:27:38;100964.19;;;11.85;49.50
13974;BME280;7060;43.770;4.008;2023-04-01T03:30:08;100956.72;;;11.79;49.82
13974;BME280;7060;43.770;4.008;2023-04-01T03:32:46;100965.94;;;11.67;50.06
13974;BME280;7060;43.770;4.008;2023-04-01T03:35:15;100969.47;;;11.67;50.51
13974;BME280;7060;43.770;4.008;2023-04-01T03:37:46;100968.31;;;11.70;50.94
13974;BME280;7060;43.770;4.008;2023-04-01T03:40:14;100914.53;;;11.26;50.74
13974;BME280;7060;43.770;4.008;2023-04-01T03:42:43;100989.91;;;11.68;50.79
13974;BME280;7060;43.770;4.008;2023-04-01T03:45:12;100986.94;;;11.62;50.74
13974;BME280;7060;43.770;4.008;2023-04-01T03:47:41;100998.13;;;11.57;51.08
13974;BME280;7060;43.770;4.008;2023-04-01T03:50:10;100995.63;;;11.46;51.79
13974;BME280;7060;43.770;4.008;2023-04-01T03:52:38;101001.69;;;11.38;51.78
13974;BME280;7060;43.770;4.008;2023-04-01T03:55:08;101008.03;;;11.37;52.05
13974;BME280;7060;43.770;4.008;2023-04-01T03:57:38;101005.63;;;11.34;50.83
13974;BME280;7060;43.770;4.008;2023-04-01T04:00:15;101012.81;;;11.34;51.11
13974;BME280;7060;43.770;4.008;2023-04-01T04:02:47;101004.94;;;11.32;50.94
13974;BME280;7060;43.770;4.008;2023-04-01T04:05:20;101016.47;;;11.33;51.00
13974;BME280;7060;43.770;4.008;2023-04-01T04:07:49;101009.16;;;11.35;51.00
13974;BME280;7060;43.770;4.008;2023-04-01T04:10:20;101007.75;;;11.40;50.58
13974;BME280;7060;43.770;4.008;2023-04-01T04:12:50;101014.09;;;11.39;50.41
13974;BME280;7060;43.770;4.008;2023-04-01T04:15:21;101005.91;;;11.41;50.38
13974;BME280;7060;43.770;4.008;2023-04-01T04:17:50;100992.66;;;11.39;50.91
13974;BME280;7060;43.770;4.008;2023-04-01T04:20:19;101001.69;;;11.38;50.97
13974;BME280;7060;43.770;4.008;2023-04-01T04:22:47;100990.84;;;11.40;51.22
13974;BME280;7060;43.770;4.008;2023-04-01T04:25:16;100982.94;;;11.38;51.32
13974;BME280;7060;43.770;4.008;2023-04-01T04:27:46;100989.13;;;11.39;51.45
13974;BME280;7060;43.770;4.008;2023-04-01T04:30:15;100970.25;;;11.40;51.72
13974;BME280;7060;43.770;4.008;2023-04-01T04:32:44;100966.59;;;11.41;51.68
13974;BME280;7060;43.770;4.008;2023-04-01T04:35:12;100960.53;;;11.39;51.60
13974;BME280;7060;43.770;4.008;2023-04-01T04:37:40;100961.38;;;11.40;51.75
13974;BME280;7060;43.770;4.008;2023-04-01T04:40:10;100959.56;;;11.40;52.18
13974;BME280;7060;43.770;4.008;2023-04-01T04:42:39;100943.63;;;11.39;52.40
13974;BME280;7060;43.770;4.008;2023-04-01T04:45:12;100945.47;;;11.38;52.46
13974;BME280;7060;43.770;4.008;2023-04-01T04:47:50;100921.66;;;11.35;52.43
13974;BME280;7060;43.770;4.008;2023-04-01T04:50:19;100931.53;;;11.35;52.19
13974;BME280;7060;43.770;4.008;2023-04-01T04:52:48;100931.66;;;11.33;52.58
13974;BME280;7060;43.770;4.008;2023-04-01T04:55:17;100917.44;;;11.33;52.22
13974;BME280;7060;43.770;4.008;2023-04-01T04:57:50;100912.22;;;11.31;52.52
13974;BME280;7060;43.770;4.008;2023-04-01T05:00:21;100837.03;;;10.88;52.14
13974;BME280;7060;43.770;4.008;2023-04-01T05:02:56;100906.22;;;11.29;52.34
13974;BME280;7060;43.770;4.008;2023-04-01T05:05:25;100916.06;;;11.29;52.77
13974;BME280;7060;43.770;4.008;2023-04-01T05:07:53;100918.06;;;11.27;52.88
13974;BME280;7060;43.770;4.008;2023-04-01T05:10:22;100923.41;;;11.27;53.16
13974;BME280;7060;43.770;4.008;2023-04-01T05:12:50;100928.75;;;11.27;53.71
13974;BME280;7060;43.770;4.008;2023-04-01T05:15:22;100926.22;;;11.25;53.50
13974;BME280;7060;43.770;4.008;2023-04-01T05:17:51;100934.94;;;11.27;53.67
13974;BME280;7060;43.770;4.008;2023-04-01T05:20:20;100952.00;;;11.26;53.97
13974;BME280;7060;43.770;4.008;2023-04-01T05:22:48;100948.34;;;11.27;54.21
13974;BME280;7060;43.770;4.008;2023-04-01T05:25:18;100970.44;;;11.29;54.06
13974;BME280;7060;43.770;4.008;2023-04-01T05:27:46;100982.13;;;11.28;54.31
13974;BME280;7060;43.770;4.008;2023-04-01T05:30:15;100988.34;;;11.29;54.19
13974;BME280;7060;43.770;4.008;2023-04-01T05:33:05;100994.53;;;11.29;54.34
13974;BME280;7060;43.770;4.008;2023-04-01T05:35:34;100999.03;;;11.29;54.15
13974;BME280;7060;43.770;4.008;2023-04-01T05:38:03;100996.22;;;11.30;54.06
13974;BME280;7060;43.770;4.008;2023-04-01T05:40:33;101000.28;;;11.34;53.67
13974;BME280;7060;43.770;4.008;2023-04-01T05:43:01;101002.53;;;11.39;53.30
13974;BME280;7060;43.770;4.008;2023-04-01T05:45:30;101007.44;;;11.43;52.92
13974;BME280;7060;43.770;4.008;2023-04-01T05:48:12;101000.97;;;11.46;52.34
13974;BME280;7060;43.770;4.008;2023-04-01T05:50:43;100992.66;;;11.39;52.16
13974;BME280;7060;43.770;4.008;2023-04-01T05:53:11;100994.47;;;11.48;51.83
13974;BME280;7060;43.770;4.008;2023-04-01T05:55:42;100992.22;;;11.53;51.73
13974;BME280;7060;43.770;4.008;2023-04-01T05:58:11;100992.91;;;11.56;51.20
13974;BME280;7060;43.770;4.008;2023-04-01T06:00:42;100987.94;;;11.61;50.99
13974;BME280;7060;43.770;4.008;2023-04-01T06:03:16;100953.63;;;11.37;50.47
13974;BME280;7060;43.770;4.008;2023-04-01T06:05:45;100998.06;;;11.67;50.50
13974;BME280;7060;43.770;4.008;2023-04-01T06:08:15;100991.03;;;11.66;50.63
13974;BME280;7060;43.770;4.008;2023-04-01T06:11:01;101008.75;;;11.76;50.43
13974;BME280;7060;43.770;4.008;2023-04-01T06:13:42;101009.16;;;11.81;50.08
13974;BME280;7060;43.770;4.008;2023-04-01T06:16:21;101013.41;;;11.84;50.28
13974;BME280;7060;43.770;4.008;2023-04-01T06:19:05;101023.13;;;11.85;50.44
13974;BME280;7060;43.770;4.008;2023-04-01T06:24:53;101023.00;;;11.77;51.00
13974;BME280;7060;43.770;4.008;2023-04-01T06:27:38;101035.41;;;11.78;51.56
13974;BME280;7060;43.770;4.008;2023-04-01T06:30:26;101031.31;;;11.74;52.29
13974;BME280;7060;43.770;4.008;2023-04-01T06:33:08;101026.84;;;11.65;52.48
13974;BME280;7060;43.770;4.008;2023-04-01T06:39:08;101040.63;;;11.70;53.24
13974;BME280;7060;43.770;4.008;2023-04-01T06:42:11;101036.97;;;11.71;53.42
13974;BME280;7060;43.770;4.008;2023-04-01T06:44:50;101038.94;;;11.69;53.62
13974;BME280;7060;43.770;4.008;2023-04-01T06:47:51;101044.31;;;11.69;54.46
13974;BME280;7060;43.770;4.008;2023-04-01T06:50:51;100964.97;;;11.11;54.79
13974;BME280;7060;43.770;4.008;2023-04-01T06:54:03;101048.53;;;11.62;54.89
13974;BME280;7060;43.770;4.008;2023-04-01T06:56:59;101055.31;;;11.66;54.90
13974;BME280;7060;43.770;4.008;2023-04-01T06:59:33;101043.34;;;11.60;55.25
13974;BME280;7060;43.770;4.008;2023-04-01T07:02:10;101041.34;;;11.62;55.62
13974;BME280;7060;43.770;4.008;2023-04-01T07:04:46;101056.72;;;11.70;55.86
13974;BME280;7060;43.770;4.008;2023-04-01T07:07:24;101058.13;;;11.74;56.14
13974;BME280;7060;43.770;4.008;2023-04-01T07:09:59;101058.53;;;11.79;56.46
13974;BME280;7060;43.770;4.008;2023-04-01T07:12:39;101062.69;;;11.91;56.31
13974;BME280;7060;43.770;4.008;2023-04-01T07:15:33;101059.16;;;12.00;56.10
13974;BME280;7060;43.770;4.008;2023-04-01T07:18:12;101059.41;;;12.07;56.04
13974;BME280;7060;43.770;4.008;2023-04-01T07:20:44;101056.13;;;12.13;56.03
13974;BME280;7060;43.770;4.008;2023-04-01T07:23:20;101058.78;;;12.23;56.42
13974;BME280;7060;43.770;4.008;2023-04-01T07:26:15;101046.19;;;12.33;55.97
13974;BME280;7060;43.770;4.008;2023-04-01T07:29:09;101039.63;;;12.45;56.16
13974;BME280;7060;43.770;4.008;2023-04-01T07:32:15;101034.91;;;12.57;55.57
13974;BME280;7060;43.770;4.008;2023-04-01T07:34:55;101031.38;;;12.74;55.05
13974;BME280;7060;43.770;4.008;2023-04-01T07:37:31;101019.81;;;12.91;54.27
13974;BME280;7060;43.770;4.008;2023-04-01T07:40:11;101018.78;;;13.10;54.07
13974;BME280;7060;43.770;4.008;2023-04-01T07:42:55;101017.34;;;13.15;53.64
13974;BME280;7060;43.770;4.008;2023-04-01T07:45:31;101004.19;;;13.30;52.34
13974;BME280;7060;43.770;4.008;2023-04-01T07:48:12;101013.00;;;13.40;51.15
13974;BME280;7060;43.770;4.008;2023-04-01T07:50:53;101019.09;;;13.42;49.96
13974;BME280;7060;43.770;4.008;2023-04-01T07:53:32;101010.41;;;13.48;50.32
13974;BME280;7060;43.770;4.008;2023-04-01T07:56:06;101001.38;;;13.57;49.75
13974;BME280;7060;43.770;4.008;2023-04-01T07:58:51;101035.34;;;13.93;49.63
13974;BME280;7060;43.770;4.008;2023-04-01T08:01:49;101037.03;;;13.94;48.97
13974;BME280;7060;43.770;4.008;2023-04-01T08:04:42;101027.44;;;13.91;48.41
13974;BME280;7060;43.770;4.008;2023-04-01T08:07:17;100998.28;;;13.70;48.30
13974;BME280;7060;43.770;4.008;2023-04-01T08:10:11;101027.91;;;13.86;48.44
13974;BME280;7060;43.770;4.008;2023-04-01T08:13:09;101019.53;;;13.89;48.22
13974;BME280;7060;43.770;4.008;2023-04-01T08:16:10;101019.69;;;13.88;48.65
13974;BME280;7060;43.770;4.008;2023-04-01T08:18:56;101026.25;;;13.94;49.09
13974;BME280;7060;43.770;4.008;2023-04-01T08:21:32;101010.25;;;13.84;49.07
13974;BME280;7060;43.770;4.008;2023-04-01T08:24:10;101014.16;;;13.89;48.88
13974;BME280;7060;43.770;4.008;2023-04-01T08:26:42;101017.69;;;13.90;48.94
13974;BME280;7060;43.770;4.008;2023-04-01T08:29:17;101009.94;;;13.87;49.20
13974;BME280;7060;43.770;4.008;2023-04-01T08:31:51;101004.03;;;13.83;49.15
13974;BME280;7060;43.770;4.008;2023-04-01T08:34:24;101013.09;;;13.82;49.43
13974;BME280;7060;43.770;4.008;2023-04-01T08:37:00;101009.88;;;13.79;49.69
13974;BME280;7060;43.770;4.008;2023-04-01T08:39:33;101013.75;;;13.76;50.01
13974;BME280;7060;43.770;4.008;2023-04-01T08:42:27;101011.91;;;13.77;50.25
13974;BME280;7060;43.770;4.008;2023-04-01T08:45:34;101003.00;;;13.76;49.85
13974;BME280;7060;43.770;4.008;2023-04-01T08:48:22;100998.78;;;13.74;49.85
13974;BME280;7060;43.770;4.008;2023-04-01T08:51:21;100996.59;;;13.69;49.44
13974;BME280;7060;43.770;4.008;2023-04-01T08:54:07;100991.22;;;13.69;49.67
13974;BME280;7060;43.770;4.008;2023-04-01T08:56:48;100962.56;;;13.52;49.19
13974;BME280;7060;43.770;4.008;2023-04-01T08:59:29;100977.94;;;13.68;49.00
13974;BME280;7060;43.770;4.008;2023-04-01T09:02:46;100986.00;;;13.68;48.74
13974;BME280;7060;43.770;4.008;2023-04-01T09:05:47;100992.06;;;13.70;48.74
13974;BME280;7060;43.770;4.008;2023-04-01T09:08:36;100993.41;;;13.74;48.79
13974;BME280;7060;43.770;4.008;2023-04-01T09:11:18;100993.59;;;13.80;48.40
13974;BME280;7060;43.770;4.008;2023-04-01T09:14:22;100987.88;;;13.75;48.37
13974;BME280;7060;43.770;4.008;2023-04-01T09:17:35;100989.53;;;13.68;48.25
13974;BME280;7060;43.770;4.008;2023-04-01T09:26:08;100989.38;;;13.78;48.60
13974;BME280;7060;43.770;4.008;2023-04-01T09:28:47;100999.66;;;13.82;48.86
13974;BME280;7060;43.770;4.008;2023-04-01T09:31:38;100989.13;;;13.89;48.72
13974;BME280;7060;43.770;4.008;2023-04-01T09:34:51;100977.53;;;13.88;48.47
13974;BME280;7060;43.770;4.008;2023-04-01T09:37:34;100982.09;;;13.96;48.61
13974;BME280;7060;43.770;4.008;2023-04-01T09:40:23;100985.16;;;14.01;48.42
13974;BME280;7060;43.770;4.008;2023-04-01T09:43:28;100982.94;;;13.97;48.25
13974;BME280;7060;43.770;4.008;2023-04-01T09:46:23;100966.19;;;14.11;48.30
13974;BME280;7060;43.770;4.008;2023-04-01T09:49:21;100964.22;;;14.21;47.99
13974;BME280;7060;43.770;4.008;2023-04-01T09:52:07;100966.25;;;14.27;47.64
13974;BME280;7060;43.770;4.008;2023-04-01T09:54:56;100964.91;;;14.31;47.21
13974;BME280;7060;43.770;4.008;2023-04-01T09:57:51;100963.38;;;14.37;47.44
13974;BME280;7060;43.770;4.008;2023-04-01T10:01:22;100969.63;;;14.37;47.57
13974;BME280;7060;43.770;4.008;2023-04-01T10:04:23;100970.47;;;14.46;47.59
13974;BME280;7060;43.770;4.008;2023-04-01T10:07:22;100958.22;;;14.51;47.09
13974;BME280;7060;43.770;4.008;2023-04-01T10:29:30;100918.91;;;15.71;45.03
13974;BME280;7060;43.770;4.008;2023-04-01T10:32:30;100919.06;;;16.08;44.41
13974;BME280;7060;43.770;4.008;2023-04-01T10:35:23;100907.22;;;16.40;43.76
13974;BME280;7060;43.770;4.008;2023-04-01T10:44:50;100899.34;;;16.99;41.74
13974;BME280;7060;43.770;4.008;2023-04-01T10:48:02;100891.63;;;17.11;39.80
13974;BME280;7060;43.770;4.008;2023-04-01T10:50:53;100914.53;;;17.15;40.54
13974;BME280;7060;43.770;4.008;2023-04-01T10:53:37;100903.00;;;17.21;39.74
13974;BME280;7060;43.770;4.008;2023-04-01T10:56:39;100878.88;;;17.34;40.36
13974;BME280;7060;43.770;4.008;2023-04-01T11:00:17;100880.19;;;17.68;40.47
13974;BME280;7060;43.770;4.008;2023-04-01T11:19:26;100851.13;;;18.27;38.96
13974;BME280;7060;43.770;4.008;2023-04-01T11:22:12;100869.75;;;18.37;38.28
13974;BME280;7060;43.770;4.008;2023-04-01T11:25:29;100844.50;;;18.51;37.79
13974;BME280;7060;43.770;4.008;2023-04-01T11:28:43;100830.19;;;18.57;36.80
13974;BME280;7060;43.770;4.008;2023-04-01T11:31:39;100822.50;;;18.60;37.12
13974;BME280;7060;43.770;4.008;2023-04-01T11:34:20;100819.53;;;18.55;37.61
13974;BME280;7060;43.770;4.008;2023-04-01T11:36:59;100814.56;;;18.59;37.64
13974;BME280;7060;43.770;4.008;2023-04-01T11:39:37;100799.75;;;18.55;36.83
13974;BME280;7060;43.770;4.008;2023-04-01T11:42:41;100787.34;;;18.46;36.31
13974;BME280;7060;43.770;4.008;2023-04-01T11:45:51;100791.06;;;18.38;35.94
13974;BME280;7060;43.770;4.008;2023-04-01T11:48:52;100795.25;;;18.41;36.04
13974;BME280;7060;43.770;4.008;2023-04-01T11:51:57;100786.09;;;18.42;35.39
13974;BME280;7060;43.770;4.008;2023-04-01T11:54:42;100795.91;;;18.49;35.23
13974;BME280;7060;43.770;4.008;2023-04-01T11:57:31;100785.00;;;18.57;35.32
13974;BME280;7060;43.770;4.008;2023-04-01T12:00:27;100800.66;;;18.62;34.30
13974;BME280;7060;43.770;4.008;2023-04-01T12:03:16;100772.88;;;18.53;34.08
13974;BME280;7060;43.770;4.008;2023-04-01T12:05:54;100798.84;;;18.76;33.94
13974;BME280;7060;43.770;4.008;2023-04-01T12:08:36;100793.88;;;18.79;34.22
13974;BME280;7060;43.770;4.008;2023-04-01T12:11:14;100796.66;;;18.86;34.03
13974;BME280;7060;43.770;4.008;2023-04-01T12:13:49;100779.81;;;18.97;33.90
13974;BME280;7060;43.770;4.008;2023-04-01T12:16:41;100773.66;;;19.10;33.55
13974;BME280;7060;43.770;4.008;2023-04-01T12:19:17;100771.41;;;19.20;34.05
13974;BME280;7060;43.770;4.008;2023-04-01T12:21:54;100770.44;;;19.34;34.08
13974;BME280;7060;43.770;4.008;2023-04-01T12:24:52;100762.16;;;19.42;33.64
13974;BME280;7060;43.770;4.008;2023-04-01T12:27:42;100757.50;;;19.36;33.65
13974;BME280;7060;43.770;4.008;2023-04-01T12:30:29;100737.69;;;19.36;33.09
13974;BME280;7060;43.770;4.008;2023-04-01T12:33:15;100729.03;;;19.47;33.66
13974;BME280;7060;43.770;4.008;2023-04-01T12:35:56;100731.75;;;19.60;32.24
13974;BME280;7060;43.770;4.008;2023-04-01T12:38:38;100718.44;;;19.72;32.28
13974;BME280;7060;43.770;4.008;2023-04-01T12:41:14;100723.03;;;19.78;31.78
13974;BME280;7060;43.770;4.008;2023-04-01T12:44:23;100711.97;;;19.86;32.97
13974;BME280;7060;43.770;4.008;2023-04-01T12:47:21;100709.25;;;19.86;32.08
13974;BME280;7060;43.770;4.008;2023-04-01T12:50:19;100716.34;;;19.87;32.48
13974;BME280;7060;43.770;4.008;2023-04-01T12:53:06;100700.50;;;19.90;32.07
13974;BME280;7060;43.770;4.008;2023-04-01T12:55:40;100702.59;;;19.88;31.38
13974;BME280;7060;43.770;4.008;2023-04-01T12:58:48;100702.59;;;19.88;31.74
13974;BME280;7060;43.770;4.008;2023-04-01T13:01:30;100699.47;;;19.78;32.03
13974;BME280;7060;43.770;4.008;2023-04-01T13:04:15;100697.97;;;19.69;32.37
13974;BME280;7060;43.770;4.008;2023-04-01T13:07:01;100703.84;;;19.73;32.44
13974;BME280;7060;43.770;4.008;2023-04-01T13:09:42;100695.50;;;19.74;32.75
13974;BME280;7060;43.770;4.008;2023-04-01T13:12:36;100690.25;;;19.79;32.74
13974;BME280;7060;43.770;4.008;2023-04-01T13:15:25;100702.16;;;19.72;33.38
13974;BME280;7060;43.770;4.008;2023-04-01T13:18:04;100687.94;;;19.63;32.88
13974;BME280;7060;43.770;4.008;2023-04-01T13:20:42;100691.25;;;19.52;33.59
13974;BME280;7060;43.770;4.008;2023-04-01T13:23:23;100696.69;;;19.58;33.57
13974;BME280;7060;43.770;4.008;2023-04-01T13:26:00;100696.28;;;19.48;32.90
13974;BME280;7060;43.770;4.008;2023-04-01T13:28:43;100682.00;;;19.33;33.39
13974;BME280;7060;43.770;4.008;2023-04-01T13:31:26;100697.22;;;19.27;33.30
13974;BME280;7060;43.770;4.008;2023-04-01T13:34:08;100697.38;;;19.13;33.68
13974;BME280;7060;43.770;4.008;2023-04-01T13:36:50;100681.28;;;19.05;34.84
13974;BME280;7060;43.770;4.008;2023-04-01T13:39:31;100700.72;;;19.15;35.03
13974;BME280;7060;43.770;4.008;2023-04-01T13:42:14;100671.72;;;19.09;35.73
13974;BME280;7060;43.770;4.008;2023-04-01T13:44:48;100700.44;;;19.44;35.42
13974;BME280;7060;43.770;4.008;2023-04-01T13:47:48;100686.88;;;19.44;35.28
13974;BME280;7060;43.770;4.008;2023-04-01T13:50:46;100677.03;;;19.37;35.24
13974;BME280;7060;43.770;4.008;2023-04-01T13:53:53;100666.97;;;19.17;35.17
13974;BME280;7060;43.770;4.008;2023-04-01T13:56:34;100669.81;;;19.03;34.95
13974;BME280;7060;43.770;4.008;2023-04-01T13:59:37;100670.00;;;18.94;34.05
13974;BME280;7060;43.770;4.008;2023-04-01T14:02:42;100679.50;;;18.77;33.57
13974;BME280;7060;43.770;4.008;2023-04-01T14:05:24;100666.28;;;18.61;33.57
13974;BME280;7060;43.770;4.008;2023-04-01T14:08:16;100648.03;;;18.42;33.55
13974;BME280;7060;43.770;4.008;2023-04-01T14:10:52;100637.81;;;18.44;33.54
13974;BME280;7060;43.770;4.008;2023-04-01T14:13:32;100642.81;;;18.40;34.54
13974;BME280;7060;43.770;4.008;2023-04-01T14:16:20;100639.44;;;18.32;33.55
13974;BME280;7060;43.770;4.008;2023-04-01T14:19:18;100638.84;;;18.36;34.20
13974;BME280;7060;43.770;4.008;2023-04-01T14:21:59;100634.91;;;18.45;33.72
13974;BME280;7060;43.770;4.008;2023-04-01T14:28:13;100598.06;;;18.44;34.27
13974;BME280;7060;43.770;4.008;2023-04-01T14:30:58;100600.47;;;18.60;33.90
13974;BME280;7060;43.770;4.008;2023-04-01T14:33:38;100612.78;;;18.63;33.91
13974;BME280;7060;43.770;4.008;2023-04-01T14:36:35;100605.69;;;18.62;34.33
13974;BME280;7060;43.770;4.008;2023-04-01T14:39:26;100623.81;;;18.62;34.44
13974;BME280;7060;43.770;4.008;2023-04-01T14:42:09;100628.16;;;18.56;34.54
13974;BME280;7060;43.770;4.008;2023-04-01T14:45:02;100612.63;;;18.37;34.02
13974;BME280;7060;43.770;4.008;2023-04-01T14:47:43;100604.78;;;18.20;34.18
13974;BME280;7060;43.770;4.008;2023-04-01T14:50:16;100610.53;;;18.04;34.45
13974;BME280;7060;43.770;4.008;2023-04-01T14:52:55;100582.72;;;17.89;34.42
13974;BME280;7060;43.770;4.008;2023-04-01T14:55:32;100569.00;;;17.63;34.02
13974;BME280;7060;43.770;4.008;2023-04-01T14:58:09;100569.13;;;17.33;33.66
13974;BME280;7060;43.770;4.008;2023-04-01T15:00:54;100596.03;;;17.20;34.32
13974;BME280;7060;43.770;4.008;2023-04-01T15:03:29;100585.88;;;17.01;34.02
13974;BME280;7060;43.770;4.008;2023-04-01T15:09:05;100590.38;;;16.64;34.60
13974;BME280;7060;43.770;4.008;2023-04-01T15:11:51;100602.41;;;16.62;34.21
13974;BME280;7060;43.770;4.008;2023-04-01T15:14:35;100586.84;;;16.64;34.23